Time;durP1;ratioP1;P1;durP2;ratioP2;P2;SDS_P1;SDS_P2;PMS_P1;PMS_P2;Temp;Humidity;BMP_temperature;BMP_pressure;BME280_temperature;BME280_humidity;BME280_pressure;Samples;Min_cycle;Max_cycle;Signal;HPM_P1;HPM_P2
2022/04/08 00:01:49;;;;;;;1.83;0.60;;;;;;;;;;5101097;28;20038;-72
2022/04/08 00:04:15;;;;;;;1.42;0.70;;;;;;;;;;5101242;28;20086;-71
2022/04/08 00:06:40;;;;;;;1.20;0.70;;;;;;;;;;5101243;28;20216;-73
2022/04/08 00:09:06;;;;;;;1.67;0.65;;;;;;;;;;5101155;28;20099;-71
2022/04/08 00:11:31;;;;;;;1.38;0.60;;;;;;;;;;5101148;28;20353;-70
2022/04/08 00:13:56;;;;;;;1.20;0.60;;;;;;;;;;5100278;28;20031;-72
2022/04/08 00:16:22;;;;;;;1.42;0.60;;;;;;;;;;5102557;28;20020;-73
2022/04/08 00:18:48;;;;;;;3.47;0.70;;;;;;;;;;5104971;28;20311;-74
2022/04/08 00:21:14;;;;;;;1.27;0.68;;;;;;;;;;5104713;28;20320;-71
2022/04/08 00:23:40;;;;;;;2.97;0.60;;;;;;;;;;5104693;28;20031;-72
2022/04/08 00:26:05;;;;;;;1.85;0.52;;;;;;;;;;5103428;28;20032;-76
2022/04/08 00:28:31;;;;;;;1.55;0.70;;;;;;;;;;5103108;28;20077;-71
2022/04/08 00:30:57;;;;;;;1.73;0.50;;;;;;;;;;5102963;28;20120;-73
2022/04/08 00:33:22;;;;;;;2.75;0.80;;;;;;;;;;5102860;28;20024;-72
2022/04/08 00:35:47;;;;;;;0.95;0.60;;;;;;;;;;5103330;28;20084;-75
2022/04/08 00:38:13;;;;;;;1.10;0.60;;;;;;;;;;5103337;28;20024;-74
2022/04/08 00:40:38;;;;;;;0.98;0.70;;;;;;;;;;5103884;28;20036;-71
2022/04/08 00:43:37;;;;;;;1.75;0.60;;;;;;;;;;5104455;28;20036;-70
2022/04/08 00:46:05;;;;;;;1.20;0.60;;;;;;;;;;5103947;28;20024;-73
2022/04/08 00:48:31;;;;;;;2.35;0.60;;;;;;;;;;5103000;28;20050;-75
2022/04/08 00:50:58;;;;;;;1.38;0.70;;;;;;;;;;5102841;28;20032;-77
2022/04/08 00:53:24;;;;;;;2.90;0.80;;;;;;;;;;5102961;28;20125;-72
2022/04/08 00:55:50;;;;;;;1.65;0.50;;;;;;;;;;5103264;28;20028;-73
2022/04/08 00:58:16;;;;;;;1.10;0.60;;;;;;;;;;5102795;28;20393;-75
2022/04/08 01:00:42;;;;;;;1.75;0.70;;;;;;;;;;5104228;28;20020;-72
2022/04/08 01:03:08;;;;;;;0.95;0.43;;;;;;;;;;5104046;28;20039;-73
2022/04/08 01:05:33;;;;;;;0.70;0.50;;;;;;;;;;5104314;28;20032;-74
2022/04/08 01:07:59;;;;;;;0.57;0.40;;;;;;;;;;5104035;28;20192;-72
2022/04/08 01:10:25;;;;;;;3.05;0.80;;;;;;;;;;5101203;28;20036;-75
2022/04/08 01:12:51;;;;;;;1.10;0.55;;;;;;;;;;5102756;28;20036;-73
2022/04/08 01:15:22;;;;;;;1.35;0.60;;;;;;;;;;5103047;28;20050;-74
2022/04/08 01:17:48;;;;;;;1.80;0.60;;;;;;;;;;5102718;28;20042;-73
2022/04/08 01:20:14;;;;;;;1.58;0.47;;;;;;;;;;5102979;28;20035;-73
2022/04/08 01:22:39;;;;;;;1.52;0.60;;;;;;;;;;5101787;28;20028;-75
2022/04/08 01:25:06;;;;;;;3.60;0.60;;;;;;;;;;5103219;28;20312;-72
2022/04/08 01:27:32;;;;;;;2.65;0.50;;;;;;;;;;5102103;28;20038;-72
2022/04/08 01:29:58;;;;;;;2.40;0.50;;;;;;;;;;5102260;28;20059;-75
2022/04/08 01:32:23;;;;;;;1.42;0.40;;;;;;;;;;5101939;28;20042;-71
2022/04/08 01:34:50;;;;;;;1.60;0.50;;;;;;;;;;5102994;28;20023;-73
2022/04/08 01:37:16;;;;;;;1.70;0.50;;;;;;;;;;5103306;28;20027;-75
2022/04/08 01:39:41;;;;;;;1.33;0.60;;;;;;;;;;5103042;28;20316;-73
2022/04/08 01:42:08;;;;;;;1.92;0.50;;;;;;;;;;5103148;28;20027;-71
2022/04/08 01:44:34;;;;;;;1.40;0.65;;;;;;;;;;5102661;28;20027;-72
2022/04/08 01:47:00;;;;;;;1.27;0.45;;;;;;;;;;5102235;28;20201;-74
2022/04/08 01:49:25;;;;;;;3.22;0.70;;;;;;;;;;5102489;28;20138;-71
2022/04/08 01:51:51;;;;;;;1.52;0.50;;;;;;;;;;5101813;28;20111;-71
2022/04/08 01:54:16;;;;;;;1.40;0.50;;;;;;;;;;5102098;28;20036;-72
2022/04/08 01:56:41;;;;;;;1.52;0.40;;;;;;;;;;5102397;28;20297;-75
2022/04/08 01:59:07;;;;;;;1.92;0.50;;;;;;;;;;5102103;28;20089;-72
2022/04/08 02:01:32;;;;;;;2.58;0.50;;;;;;;;;;5102109;28;20036;-71
2022/04/08 02:03:58;;;;;;;0.63;0.50;;;;;;;;;;5102604;28;20036;-71
2022/04/08 02:06:23;;;;;;;2.60;0.45;;;;;;;;;;5102617;28;20032;-72
2022/04/08 02:08:50;;;;;;;1.20;0.47;;;;;;;;;;5102880;28;20200;-76
2022/04/08 02:11:15;;;;;;;2.05;0.40;;;;;;;;;;5102600;28;20256;-70
2022/04/08 02:13:41;;;;;;;1.70;0.50;;;;;;;;;;5101784;28;20346;-75
2022/04/08 02:16:07;;;;;;;0.98;0.35;;;;;;;;;;5102480;28;20266;-71
2022/04/08 02:18:32;;;;;;;0.73;0.40;;;;;;;;;;5102216;28;20022;-75
2022/04/08 02:20:57;;;;;;;0.90;0.50;;;;;;;;;;5102581;28;20024;-74
2022/04/08 02:23:23;;;;;;;1.25;0.40;;;;;;;;;;5101620;28;20027;-73
2022/04/08 02:25:49;;;;;;;0.75;0.40;;;;;;;;;;5100885;28;20088;-71
2022/04/08 02:28:14;;;;;;;1.08;0.50;;;;;;;;;;5101269;28;20055;-74
2022/04/08 02:30:40;;;;;;;1.30;0.63;;;;;;;;;;5101241;28;20023;-73
2022/04/08 02:33:05;;;;;;;0.80;0.45;;;;;;;;;;5102134;28;20024;-71
2022/04/08 02:35:31;;;;;;;0.90;0.40;;;;;;;;;;5102423;28;20091;-73
2022/04/08 02:37:57;;;;;;;1.95;0.45;;;;;;;;;;5102516;28;20023;-76
2022/04/08 02:40:23;;;;;;;1.65;0.80;;;;;;;;;;5102360;28;20027;-72
2022/04/08 02:42:48;;;;;;;0.85;0.43;;;;;;;;;;5102380;28;20042;-71
2022/04/08 02:45:13;;;;;;;0.70;0.30;;;;;;;;;;5102302;28;20027;-74
2022/04/08 02:47:43;;;;;;;0.93;0.35;;;;;;;;;;5101421;28;20028;-74
2022/04/08 02:50:09;;;;;;;0.38;0.30;;;;;;;;;;5102010;28;20024;-71
2022/04/08 02:52:35;;;;;;;0.63;0.40;;;;;;;;;;5102052;28;20044;-72
2022/04/08 02:55:00;;;;;;;0.60;0.40;;;;;;;;;;5102028;28;20214;-72
2022/04/08 02:57:26;;;;;;;1.85;0.52;;;;;;;;;;5102022;28;20053;-75
2022/04/08 02:59:53;;;;;;;1.48;0.30;;;;;;;;;;5102312;28;20377;-73
2022/04/08 03:02:19;;;;;;;0.60;0.40;;;;;;;;;;5102146;28;20016;-76
2022/04/08 03:04:44;;;;;;;0.95;0.50;;;;;;;;;;5101734;28;20165;-75
2022/04/08 03:07:10;;;;;;;1.13;0.40;;;;;;;;;;5101859;28;20344;-76
2022/04/08 03:09:39;;;;;;;0.35;0.30;;;;;;;;;;5100588;28;20091;-73
2022/04/08 03:12:05;;;;;;;0.73;0.35;;;;;;;;;;5101866;28;20058;-71
2022/04/08 03:14:33;;;;;;;1.90;0.40;;;;;;;;;;5101683;28;20030;-74
2022/04/08 03:17:02;;;;;;;0.85;0.40;;;;;;;;;;5101896;28;20189;-74
2022/04/08 03:19:28;;;;;;;1.13;0.50;;;;;;;;;;5102151;28;20028;-75
2022/04/08 03:21:54;;;;;;;0.60;0.30;;;;;;;;;;5101759;28;20059;-72
2022/04/08 03:24:19;;;;;;;0.80;0.43;;;;;;;;;;5101358;28;20077;-76
2022/04/08 03:26:47;;;;;;;0.60;0.35;;;;;;;;;;5101787;28;20051;-72
2022/04/08 03:29:13;;;;;;;1.13;0.50;;;;;;;;;;5101686;28;20028;-75
2022/04/08 03:31:39;;;;;;;0.82;0.40;;;;;;;;;;5101562;28;20223;-71
2022/04/08 03:34:04;;;;;;;0.65;0.30;;;;;;;;;;5101633;28;20347;-72
2022/04/08 03:36:30;;;;;;;0.82;0.40;;;;;;;;;;5101686;28;20212;-71
2022/04/08 03:38:55;;;;;;;0.70;0.38;;;;;;;;;;5101767;28;20047;-71
2022/04/08 03:41:20;;;;;;;1.70;0.57;;;;;;;;;;5100944;28;20021;-71
2022/04/08 03:43:46;;;;;;;0.70;0.40;;;;;;;;;;5100437;28;20024;-73
2022/04/08 03:46:13;;;;;;;1.10;0.40;;;;;;;;;;5100742;28;20032;-73
2022/04/08 03:48:42;;;;;;;1.23;0.52;;;;;;;;;;5101573;28;20024;-72
2022/04/08 03:51:08;;;;;;;1.50;0.40;;;;;;;;;;5102982;28;20028;-71
2022/04/08 03:53:34;;;;;;;0.98;0.50;;;;;;;;;;5105546;28;20387;-73
2022/04/08 03:56:01;;;;;;;0.68;0.40;;;;;;;;;;5105416;28;20048;-73
2022/04/08 03:58:27;;;;;;;2.25;0.75;;;;;;;;;;5104018;28;20032;-74
2022/04/08 04:00:53;;;;;;;1.50;0.50;;;;;;;;;;5104381;28;20192;-70
2022/04/08 04:03:19;;;;;;;2.30;0.50;;;;;;;;;;5104514;28;20044;-76
2022/04/08 04:05:44;;;;;;;0.77;0.45;;;;;;;;;;5104111;28;20048;-72
2022/04/08 04:08:15;;;;;;;1.15;0.50;;;;;;;;;;5104877;28;20047;-74
2022/04/08 04:10:40;;;;;;;0.57;0.40;;;;;;;;;;5104817;28;20021;-73
2022/04/08 04:13:06;;;;;;;1.27;0.40;;;;;;;;;;5104673;28;20042;-72
2022/04/08 04:15:31;;;;;;;0.28;0.20;;;;;;;;;;5104224;28;20324;-75
2022/04/08 04:17:57;;;;;;;0.75;0.40;;;;;;;;;;5105224;28;20028;-72
2022/04/08 04:20:22;;;;;;;1.83;0.40;;;;;;;;;;5105396;28;20027;-72
2022/04/08 04:22:48;;;;;;;0.75;0.40;;;;;;;;;;5104921;28;20208;-73
2022/04/08 04:25:13;;;;;;;1.75;0.40;;;;;;;;;;5103641;28;20189;-72
2022/04/08 04:27:38;;;;;;;0.65;0.20;;;;;;;;;;5103586;28;20081;-73
2022/04/08 04:30:04;;;;;;;1.73;0.30;;;;;;;;;;5103542;28;20024;-70
2022/04/08 04:32:30;;;;;;;0.47;0.30;;;;;;;;;;5103306;28;20074;-75
2022/04/08 04:34:55;;;;;;;1.02;0.50;;;;;;;;;;5102884;28;20020;-73
2022/04/08 04:37:21;;;;;;;0.65;0.40;;;;;;;;;;5103346;28;20215;-71
2022/04/08 04:39:46;;;;;;;1.33;0.40;;;;;;;;;;5103783;28;20315;-72
2022/04/08 04:42:11;;;;;;;1.30;0.30;;;;;;;;;;5103386;28;20081;-73
2022/04/08 04:44:37;;;;;;;0.95;0.40;;;;;;;;;;5104143;28;20342;-72
2022/04/08 04:47:03;;;;;;;1.40;0.40;;;;;;;;;;5104391;28;20043;-76
2022/04/08 04:49:28;;;;;;;1.85;0.32;;;;;;;;;;5104795;28;20035;-73
2022/04/08 04:51:53;;;;;;;1.17;0.20;;;;;;;;;;5104346;28;20369;-72
2022/04/08 04:54:19;;;;;;;0.50;0.30;;;;;;;;;;5104282;28;20024;-72
2022/04/08 04:56:44;;;;;;;0.60;0.40;;;;;;;;;;5103515;28;20314;-72
2022/04/08 04:59:11;;;;;;;0.40;0.30;;;;;;;;;;5103861;28;20035;-72
2022/04/08 05:01:36;;;;;;;1.35;0.50;;;;;;;;;;5104205;28;20196;-71
2022/04/08 05:04:02;;;;;;;1.85;0.50;;;;;;;;;;5102714;28;20387;-74
2022/04/08 05:06:27;;;;;;;0.98;0.30;;;;;;;;;;5103157;28;20095;-75
2022/04/08 05:08:53;;;;;;;1.88;0.40;;;;;;;;;;5102812;28;20020;-71
2022/04/08 05:11:18;;;;;;;0.77;0.30;;;;;;;;;;5102394;28;20024;-72
2022/04/08 05:13:44;;;;;;;0.43;0.25;;;;;;;;;;5102293;28;20028;-74
2022/04/08 05:16:09;;;;;;;1.42;0.30;;;;;;;;;;5097362;28;20059;-72
2022/04/08 05:18:37;;;;;;;1.52;0.40;;;;;;;;;;5092570;28;20496;-71
2022/04/08 05:21:03;;;;;;;1.33;0.60;;;;;;;;;;5092246;28;20028;-75
2022/04/08 05:23:29;;;;;;;1.70;0.60;;;;;;;;;;5091955;28;20031;-74
2022/04/08 05:25:56;;;;;;;8.45;1.10;;;;;;;;;;5091900;28;20020;-78
2022/04/08 05:28:22;;;;;;;1.17;0.40;;;;;;;;;;5095409;28;20047;-79
2022/04/08 05:30:47;;;;;;;0.40;0.20;;;;;;;;;;5106266;28;20036;-80
2022/04/08 05:33:13;;;;;;;0.75;0.30;;;;;;;;;;5095555;28;20547;-74
2022/04/08 05:35:38;;;;;;;0.30;0.28;;;;;;;;;;5092972;28;20044;-74
2022/04/08 05:38:04;;;;;;;1.38;0.45;;;;;;;;;;5111065;28;20023;-79
2022/04/08 05:40:29;;;;;;;0.60;0.30;;;;;;;;;;5112139;28;20062;-79
2022/04/08 05:42:55;;;;;;;0.47;0.30;;;;;;;;;;5112047;28;20120;-75
2022/04/08 05:45:23;;;;;;;0.50;0.30;;;;;;;;;;5100723;28;20019;-74
2022/04/08 05:47:55;;;;;;;0.50;0.25;;;;;;;;;;5091843;28;20031;-76
2022/04/08 05:50:21;;;;;;;1.83;0.50;;;;;;;;;;5091724;28;20032;-74
2022/04/08 05:52:47;;;;;;;1.00;0.55;;;;;;;;;;5091837;28;20077;-76
2022/04/08 05:55:14;;;;;;;0.73;0.30;;;;;;;;;;5091403;28;20028;-74
2022/04/08 05:57:40;;;;;;;1.05;0.40;;;;;;;;;;5091345;28;20099;-74
2022/04/08 06:00:10;;;;;;;0.85;0.38;;;;;;;;;;5091094;28;20024;-75
2022/04/08 06:02:35;;;;;;;1.17;0.20;;;;;;;;;;5103743;28;20059;-76
2022/04/08 06:05:01;;;;;;;0.57;0.30;;;;;;;;;;5111438;28;20063;-78
2022/04/08 06:07:26;;;;;;;0.60;0.20;;;;;;;;;;5111633;27;20494;-70
2022/04/08 06:09:52;;;;;;;0.43;0.32;;;;;;;;;;5111426;28;20033;-70
2022/04/08 06:12:18;;;;;;;1.25;0.50;;;;;;;;;;5111393;28;20029;-70
2022/04/08 06:14:43;;;;;;;0.80;0.28;;;;;;;;;;5110849;28;20032;-71
2022/04/08 06:17:09;;;;;;;1.02;0.60;;;;;;;;;;5111539;28;20059;-70
2022/04/08 06:19:34;;;;;;;1.10;0.50;;;;;;;;;;5111202;28;20030;-70
2022/04/08 06:21:59;;;;;;;2.35;0.32;;;;;;;;;;5111055;28;20059;-70
2022/04/08 06:24:25;;;;;;;0.73;0.30;;;;;;;;;;5110813;28;20015;-70
2022/04/08 06:26:50;;;;;;;1.13;0.47;;;;;;;;;;5111442;28;20038;-71
2022/04/08 06:29:16;;;;;;;1.40;0.40;;;;;;;;;;5098251;28;20042;-70
2022/04/08 06:31:41;;;;;;;1.42;0.30;;;;;;;;;;5088736;28;20024;-72
2022/04/08 06:34:07;;;;;;;1.83;0.40;;;;;;;;;;5113193;27;20571;-76
2022/04/08 06:36:32;;;;;;;1.52;0.40;;;;;;;;;;5107334;28;20066;-73
2022/04/08 06:38:58;;;;;;;0.73;0.40;;;;;;;;;;5088762;28;20570;-74
2022/04/08 06:41:23;;;;;;;1.80;0.60;;;;;;;;;;5107716;28;20471;-72
2022/04/08 06:43:49;;;;;;;1.30;0.30;;;;;;;;;;5109931;28;20020;-71
2022/04/08 06:46:14;;;;;;;3.92;0.52;;;;;;;;;;5110371;28;20016;-71
2022/04/08 06:48:40;;;;;;;0.68;0.30;;;;;;;;;;5110553;28;20018;-72
2022/04/08 06:51:05;;;;;;;0.50;0.30;;;;;;;;;;5110481;28;20024;-71
2022/04/08 06:53:32;;;;;;;1.17;0.35;;;;;;;;;;5110539;28;20034;-70
2022/04/08 06:55:58;;;;;;;0.85;0.32;;;;;;;;;;5110550;28;20043;-74
2022/04/08 06:58:27;;;;;;;2.28;0.30;;;;;;;;;;5110555;28;20125;-74
2022/04/08 07:00:53;;;;;;;0.40;0.20;;;;;;;;;;5110640;28;20054;-74
2022/04/08 07:03:19;;;;;;;0.90;0.30;;;;;;;;;;5110707;28;20106;-74
2022/04/08 07:05:44;;;;;;;0.60;0.32;;;;;;;;;;5110062;28;20131;-74
2022/04/08 07:08:10;;;;;;;1.40;0.40;;;;;;;;;;5110373;28;20054;-76
2022/04/08 07:10:38;;;;;;;0.40;0.22;;;;;;;;;;5110123;28;20038;-75
2022/04/08 07:13:04;;;;;;;0.40;0.28;;;;;;;;;;5110659;28;20027;-74
2022/04/08 07:15:30;;;;;;;2.05;0.50;;;;;;;;;;5110265;28;20104;-75
2022/04/08 07:17:56;;;;;;;0.95;0.28;;;;;;;;;;5110176;28;20028;-74
2022/04/08 07:20:22;;;;;;;1.17;0.35;;;;;;;;;;5108891;28;20024;-74
2022/04/08 07:22:47;;;;;;;0.77;0.40;;;;;;;;;;5109273;28;20024;-77
2022/04/08 07:25:13;;;;;;;1.15;0.40;;;;;;;;;;5104193;28;20028;-75
2022/04/08 07:27:43;;;;;;;1.55;0.35;;;;;;;;;;5100909;28;20027;-74
2022/04/08 07:30:08;;;;;;;2.78;0.30;;;;;;;;;;5099304;28;20140;-77
2022/04/08 07:32:34;;;;;;;0.65;0.32;;;;;;;;;;5090231;28;20563;-76
2022/04/08 07:34:59;;;;;;;2.00;0.25;;;;;;;;;;5105674;28;20027;-75
2022/04/08 07:37:31;;;;;;;0.68;0.32;;;;;;;;;;5110372;28;20035;-76
2022/04/08 07:39:58;;;;;;;1.23;0.28;;;;;;;;;;5110212;28;20489;-77
2022/04/08 07:42:24;;;;;;;0.63;0.20;;;;;;;;;;5103581;28;20016;-75
2022/04/08 07:44:50;;;;;;;0.47;0.20;;;;;;;;;;5089590;28;20020;-76
2022/04/08 07:47:18;;;;;;;0.90;0.30;;;;;;;;;;5089876;28;20541;-75
2022/04/08 07:49:44;;;;;;;1.98;0.30;;;;;;;;;;5090110;28;20016;-75
2022/04/08 07:52:09;;;;;;;0.68;0.32;;;;;;;;;;5089875;28;20034;-74
2022/04/08 07:54:34;;;;;;;0.60;0.22;;;;;;;;;;5089488;28;20511;-74
2022/04/08 07:57:00;;;;;;;0.20;0.20;;;;;;;;;;5088953;28;20506;-77
2022/04/08 07:59:25;;;;;;;2.25;0.28;;;;;;;;;;5095571;28;20031;-74
2022/04/08 08:01:51;;;;;;;5.10;0.40;;;;;;;;;;5109945;28;20020;-74
2022/04/08 08:04:16;;;;;;;1.35;0.20;;;;;;;;;;5109755;28;20075;-73
2022/04/08 08:06:42;;;;;;;4.28;0.70;;;;;;;;;;5109827;28;20023;-74
2022/04/08 08:09:08;;;;;;;0.20;0.20;;;;;;;;;;5109991;28;20035;-74
2022/04/08 08:11:34;;;;;;;0.95;0.28;;;;;;;;;;5109908;28;20023;-75
2022/04/08 08:13:59;;;;;;;1.98;0.30;;;;;;;;;;5110165;28;20035;-74
2022/04/08 08:16:25;;;;;;;3.33;0.30;;;;;;;;;;5109883;28;20028;-74
2022/04/08 08:35:18;;;;;;;0.73;0.20;;;;;;;;;;5087975;27;20420;-73
